createdAt,value
2019-04-11T00:00:24.026Z,0
2019-04-11T00:01:33.708Z,0
2019-04-11T00:02:21.097Z,0
2019-04-11T00:03:19.765Z,0
2019-04-11T00:04:18.309Z,0
2019-04-11T00:05:16.912Z,0
2019-04-11T00:06:15.583Z,0
2019-04-11T00:07:14.253Z,0
2019-04-11T00:09:54.632Z,0
2019-04-11T00:10:53.489Z,0
2019-04-11T00:11:52.352Z,0
2019-04-11T00:12:50.562Z,0
2019-04-11T00:13:49.486Z,0
2019-04-11T00:14:48.376Z,0
2019-04-11T00:15:46.073Z,0
2019-04-11T00:16:45.608Z,0
2019-04-11T00:17:43.861Z,0
2019-04-11T00:18:42.888Z,0
2019-04-11T00:19:40.470Z,0
2019-04-11T00:20:40.181Z,0
2019-04-11T00:21:37.976Z,0
2019-04-11T00:38:23.881Z,0
2019-04-11T00:39:23.550Z,0
2019-04-11T00:40:21.522Z,0
2019-04-11T00:41:19.832Z,0
2019-04-11T00:42:18.684Z,0
2019-04-11T00:43:28.452Z,0
2019-04-11T00:44:16.564Z,0
2019-04-11T00:45:15.718Z,0
2019-04-11T00:46:13.080Z,0
2019-04-11T00:47:13.002Z,0
2019-04-11T00:48:11.315Z,0
2019-04-11T00:49:10.202Z,0
2019-04-11T00:50:08.047Z,0
2019-04-11T00:51:07.649Z,0
2019-04-11T00:52:05.285Z,0
2019-04-11T00:53:04.071Z,0
2019-04-11T00:54:02.691Z,0
2019-04-11T00:55:01.325Z,0
2019-04-11T00:55:59.929Z,0
2019-04-11T00:56:58.798Z,0
2019-04-11T00:57:57.156Z,0
2019-04-11T00:58:56.076Z,0
2019-04-11T00:59:54.349Z,0
2019-04-11T01:00:53.477Z,0
2019-04-11T01:01:51.547Z,0
2019-04-11T01:02:49.841Z,0
2019-04-11T01:03:49.455Z,0
2019-04-11T01:04:46.915Z,0
2019-04-11T01:05:45.776Z,0
2019-04-11T01:06:44.586Z,0
2019-04-11T01:07:42.926Z,0
2019-04-11T01:08:41.954Z,0
2019-04-11T01:09:40.287Z,0
2019-04-11T01:10:39.334Z,0
2019-04-11T01:11:37.823Z,0
2019-04-11T01:12:36.535Z,0
2019-04-11T01:13:44.261Z,0
2019-04-11T01:14:34.040Z,0
2019-04-11T01:15:31.634Z,0
2019-04-11T01:16:30.517Z,0
2019-04-11T01:17:29.508Z,0
2019-04-11T01:18:27.774Z,0
2019-04-11T01:19:26.829Z,0
2019-04-11T01:20:24.769Z,0
2019-04-11T01:21:24.252Z,0
2019-04-11T01:22:22.300Z,0
2019-04-11T01:23:20.754Z,0
2019-04-11T01:24:19.724Z,0
2019-04-11T01:25:17.659Z,0
2019-04-11T01:26:16.999Z,0
2019-04-11T01:27:15.999Z,0
2019-04-11T01:28:14.289Z,0
2019-04-11T01:29:13.322Z,0
2019-04-11T01:30:11.677Z,0
2019-04-11T01:31:09.574Z,0
2019-04-11T01:32:08.360Z,0
2019-04-11T01:33:06.732Z,0
2019-04-11T01:34:06.373Z,0
2019-04-11T01:35:04.770Z,0
2019-04-11T01:36:02.667Z,0
2019-04-11T01:37:01.666Z,0
2019-04-11T01:37:59.863Z,0
2019-04-11T01:38:58.869Z,0
2019-04-11T01:39:57.182Z,0
2019-04-11T01:40:56.148Z,0
2019-04-11T01:41:55.145Z,0
2019-04-11T01:42:52.698Z,0
2019-04-11T01:43:56.021Z,0
2019-04-11T01:44:49.869Z,0
2019-04-11T01:45:49.474Z,0
2019-04-11T01:46:46.980Z,0
2019-04-11T01:47:45.529Z,0
2019-04-11T01:48:44.078Z,0
2019-04-11T01:49:42.604Z,0
2019-04-11T01:50:41.259Z,0
2019-04-11T01:51:40.094Z,0
2019-04-11T01:52:38.393Z,0
2019-04-11T01:53:37.317Z,0
2019-04-11T01:54:35.542Z,0
2019-04-11T01:55:34.737Z,0
2019-04-11T01:56:33.576Z,0
2019-04-11T01:57:31.225Z,0
2019-04-11T01:58:30.832Z,0
2019-04-11T01:59:29.121Z,0
2019-04-11T02:00:28.064Z,0
2019-04-11T02:01:25.704Z,0
2019-04-11T02:02:24.349Z,0
2019-04-11T02:03:23.304Z,0
2019-04-11T02:04:21.757Z,0
2019-04-11T02:05:20.934Z,0
2019-04-11T02:06:18.869Z,0
2019-04-11T02:07:18.454Z,0
2019-04-11T02:08:17.376Z,0
2019-04-11T02:09:15.830Z,0
2019-04-11T02:10:13.385Z,0
2019-04-11T02:11:12.909Z,0
2019-04-11T02:12:10.484Z,0
2019-04-11T02:13:09.910Z,0
2019-04-11T02:14:14.007Z,0
2019-04-11T02:15:06.331Z,0
2019-04-11T02:16:05.078Z,0
2019-04-11T02:17:03.703Z,0
2019-04-11T02:18:03.275Z,0
2019-04-11T02:19:01.633Z,0
2019-04-11T02:20:00.621Z,0
2019-04-11T02:20:58.011Z,0
2019-04-11T02:21:56.568Z,0
2019-04-11T02:22:55.203Z,0
2019-04-11T02:23:55.166Z,0
2019-04-11T02:24:52.547Z,0
2019-04-11T02:25:52.193Z,0
2019-04-11T02:26:50.350Z,0
2019-04-11T02:27:48.455Z,0
2019-04-11T02:28:47.053Z,0
2019-04-11T02:29:46.687Z,0
2019-04-11T02:30:46.338Z,0
2019-04-11T02:31:44.381Z,0
2019-04-11T02:32:42.803Z,0
2019-04-11T02:33:41.344Z,0
2019-04-11T02:34:39.696Z,0
2019-04-11T02:35:37.303Z,0
2019-04-11T02:36:37.849Z,0
2019-04-11T02:37:34.671Z,0
2019-04-11T02:38:34.685Z,0
2019-04-11T02:39:33.705Z,0
2019-04-11T02:40:32.265Z,0
2019-04-11T02:41:29.832Z,0
2019-04-11T02:42:27.740Z,0
2019-04-11T02:43:26.001Z,0
2019-04-11T02:44:38.154Z,0
2019-04-11T02:45:36.124Z,0
2019-04-11T02:46:32.983Z,0
2019-04-11T02:47:25.205Z,0
2019-04-11T02:48:20.395Z,0
2019-04-11T02:49:19.243Z,0
2019-04-11T02:50:19.110Z,0
2019-04-11T02:51:15.144Z,0
2019-04-11T02:52:15.055Z,0
2019-04-11T02:53:12.534Z,0
2019-04-11T02:54:11.493Z,0
2019-04-11T02:55:10.593Z,0
2019-04-11T02:56:09.205Z,0
2019-04-11T02:57:07.898Z,0
2019-04-11T02:58:06.275Z,0
2019-04-11T02:59:05.043Z,0
2019-04-11T03:00:04.224Z,0
2019-04-11T03:01:04.721Z,0
2019-04-11T03:02:00.436Z,0
2019-04-11T03:02:59.338Z,0
2019-04-11T03:03:58.929Z,0
2019-04-11T03:04:56.294Z,0
2019-04-11T03:05:55.406Z,0
2019-04-11T03:06:52.465Z,0
2019-04-11T03:07:50.990Z,0
2019-04-11T03:08:50.858Z,0
2019-04-11T03:09:48.960Z,0
2019-04-11T03:10:46.925Z,0
2019-04-11T03:11:47.156Z,0
2019-04-11T03:12:46.070Z,0
2019-04-11T03:13:44.219Z,0
2019-04-11T03:14:56.434Z,0
2019-04-11T03:15:56.632Z,0
2019-04-11T03:16:51.546Z,0
2019-04-11T03:17:42.765Z,0
2019-04-11T03:18:54.320Z,0
2019-04-11T03:19:47.556Z,0
2019-04-11T03:20:40.671Z,0
2019-04-11T03:21:36.296Z,0
2019-04-11T03:22:31.957Z,0
2019-04-11T03:23:28.813Z,0
2019-04-11T03:24:29.249Z,0
2019-04-11T03:25:26.016Z,0
2019-04-11T03:26:25.018Z,0
2019-04-11T03:27:25.967Z,0
2019-04-11T03:28:25.361Z,0
2019-04-11T03:29:20.375Z,0
2019-04-11T03:30:24.652Z,0
2019-04-11T03:32:10.712Z,0
2019-04-11T03:33:00.153Z,0
2019-04-11T03:37:49.229Z,0
2019-04-11T03:38:29.163Z,0
2019-04-11T03:41:04.056Z,0
2019-04-11T03:42:03.745Z,0
2019-04-11T03:42:59.178Z,0
2019-04-11T03:43:53.774Z,0
2019-04-11T03:44:46.820Z,0
2019-04-11T03:45:58.534Z,0
2019-04-11T03:46:52.221Z,0
2019-04-11T03:47:52.427Z,0
2019-04-11T03:50:07.543Z,0
2019-04-11T03:51:01.661Z,0
2019-04-11T03:51:59.100Z,0
2019-04-11T03:52:59.367Z,0
2019-04-11T03:53:56.750Z,0
2019-04-11T03:54:55.988Z,0
2019-04-11T03:55:53.699Z,0
2019-04-11T03:56:53.208Z,0
2019-04-11T03:57:51.701Z,0
2019-04-11T03:58:50.316Z,0
2019-04-11T04:01:11.853Z,0
2019-04-11T04:02:12.454Z,0
2019-04-11T04:03:09.654Z,0
2019-04-11T04:04:08.998Z,0
2019-04-11T04:05:06.750Z,0
2019-04-11T04:06:04.953Z,0
2019-04-11T04:07:04.745Z,0
2019-04-11T04:08:03.521Z,0
2019-04-11T04:09:01.052Z,0
2019-04-11T04:10:00.355Z,0
2019-04-11T04:10:58.336Z,0
2019-04-11T04:11:56.851Z,0
2019-04-11T04:12:55.827Z,0
2019-04-11T04:13:53.877Z,0
2019-04-11T04:14:53.700Z,4
2019-04-11T04:15:59.516Z,0
2019-04-11T04:16:50.935Z,0
2019-04-11T04:17:47.819Z,4
2019-04-11T04:18:47.671Z,0
2019-04-11T04:19:45.621Z,4
2019-04-11T04:20:44.235Z,0
2019-04-11T04:21:42.863Z,4
2019-04-11T04:22:42.012Z,4
2019-04-11T04:23:40.875Z,8
2019-04-11T04:24:40.338Z,8
2019-04-11T04:25:37.286Z,4
2019-04-11T04:26:35.597Z,8
2019-04-11T04:27:34.757Z,12
2019-04-11T04:28:33.789Z,12
2019-04-11T04:29:32.238Z,16
2019-04-11T04:30:29.959Z,20
2019-04-11T04:31:28.675Z,20
2019-04-11T04:32:27.995Z,24
2019-04-11T04:33:26.537Z,24
2019-04-11T04:34:25.902Z,32
2019-04-11T04:35:23.990Z,32
2019-04-11T04:36:22.293Z,40
2019-04-11T04:37:22.122Z,44
2019-04-11T04:38:18.981Z,48
2019-04-11T04:39:17.548Z,52
2019-04-11T04:40:30.771Z,60
2019-04-11T04:41:26.470Z,68
2019-04-11T04:42:23.779Z,72
2019-04-11T04:43:12.041Z,84
2019-04-11T04:44:10.549Z,88
2019-04-11T04:45:10.049Z,100
2019-04-11T04:46:22.946Z,108
2019-04-11T04:47:16.349Z,120
2019-04-11T04:48:10.711Z,128
2019-04-11T04:49:04.749Z,140
2019-04-11T04:50:04.078Z,156
2019-04-11T04:51:05.733Z,164
2019-04-11T04:51:59.657Z,180
2019-04-11T04:52:58.657Z,192
2019-04-11T04:53:57.870Z,208
2019-04-11T04:54:57.285Z,228
2019-04-11T04:55:54.373Z,240
2019-04-11T04:56:54.435Z,260
2019-04-11T04:57:53.064Z,280
2019-04-11T04:58:50.724Z,304
2019-04-11T04:59:48.952Z,320
2019-04-11T05:00:48.341Z,344
2019-04-11T05:01:48.076Z,364
2019-04-11T05:02:44.647Z,384
2019-04-11T05:03:44.629Z,404
2019-04-11T05:04:43.460Z,428
2019-04-11T05:05:42.201Z,452
2019-04-11T05:06:40.660Z,480
2019-04-11T05:07:40.331Z,508
2019-04-11T05:08:36.406Z,532
2019-04-11T05:09:36.127Z,556
2019-04-11T05:10:33.436Z,584
2019-04-11T05:11:32.081Z,612
2019-04-11T05:12:30.882Z,636
2019-04-11T05:13:30.181Z,660
2019-04-11T05:14:29.414Z,684
2019-04-11T05:15:28.079Z,708
2019-04-11T05:16:25.210Z,740
2019-04-11T05:17:26.142Z,768
2019-04-11T05:18:23.584Z,808
2019-04-11T05:19:22.141Z,852
2019-04-11T05:20:19.786Z,880
2019-04-11T05:21:19.117Z,912
2019-04-11T05:22:16.850Z,940
2019-04-11T05:23:15.374Z,960
2019-04-11T05:24:14.564Z,980
2019-04-11T05:25:12.936Z,1012
2019-04-11T05:26:11.553Z,1044
2019-04-11T05:27:10.414Z,1112
2019-04-11T05:29:51.496Z,1224
2019-04-11T05:30:49.097Z,1260
2019-04-11T05:31:47.761Z,1264
2019-04-11T05:32:47.171Z,1320
2019-04-11T05:33:45.613Z,1332
2019-04-11T05:36:25.141Z,1396
2019-04-11T05:37:23.809Z,1416
2019-04-11T05:38:23.047Z,1428
2019-04-11T05:39:20.874Z,1448
2019-04-11T05:40:19.740Z,1472
2019-04-11T05:41:20.413Z,1492
2019-04-11T05:42:19.368Z,1512
2019-04-11T05:43:15.616Z,1536
2019-04-11T05:44:14.600Z,1556
2019-04-11T05:45:18.186Z,1584
2019-04-11T05:46:25.946Z,1600
2019-04-11T05:47:14.421Z,1612
2019-04-11T05:48:09.384Z,1636
2019-04-11T05:49:07.447Z,1652
2019-04-11T05:50:09.117Z,1676
2019-04-11T05:51:04.665Z,1696
2019-04-11T05:52:03.950Z,1708
2019-04-11T05:53:03.627Z,1724
2019-04-11T05:54:04.691Z,1740
2019-04-11T05:54:59.273Z,1764
2019-04-11T05:55:59.116Z,1780
2019-04-11T05:56:58.148Z,1796
2019-04-11T05:57:55.424Z,1808
2019-04-11T05:58:54.105Z,1828
2019-04-11T05:59:54.434Z,1848
2019-04-11T06:00:52.897Z,1868
2019-04-11T06:01:50.777Z,1896
2019-04-11T06:02:49.238Z,1904
2019-04-11T06:03:49.126Z,1912
2019-04-11T06:04:49.884Z,1928
2019-04-11T06:05:44.836Z,1928
2019-04-11T06:06:44.336Z,1948
2019-04-11T06:07:45.052Z,1960
2019-04-11T06:08:40.554Z,1972
2019-04-11T06:09:41.486Z,1996
2019-04-11T06:10:42.458Z,2016
2019-04-11T06:11:36.923Z,2044
2019-04-11T06:12:35.947Z,2080
2019-04-11T06:13:34.308Z,2100
2019-04-11T06:14:33.036Z,2116
2019-04-11T06:15:31.247Z,2124
2019-04-11T06:16:36.659Z,2132
2019-04-11T06:17:28.055Z,2132
2019-04-11T06:18:32.211Z,2148
2019-04-11T06:19:25.164Z,2152
2019-04-11T06:20:25.149Z,2172
2019-04-11T06:21:22.412Z,2196
2019-04-11T06:22:21.338Z,2228
2019-04-11T06:23:19.566Z,2264
2019-04-11T06:24:18.271Z,2272
2019-04-11T06:25:18.788Z,2268
2019-04-11T06:26:16.574Z,2272
2019-04-11T06:27:15.335Z,2280
2019-04-11T06:28:12.551Z,2312
2019-04-11T06:29:17.080Z,2312
2019-04-11T06:30:09.875Z,2336
2019-04-11T06:31:09.600Z,2364
2019-04-11T06:32:07.659Z,2436
2019-04-11T06:33:05.630Z,2424
2019-04-11T06:36:45.224Z,2532
2019-04-11T06:37:43.713Z,2548
2019-04-11T06:38:42.836Z,2568
2019-04-11T06:39:40.524Z,2600
2019-04-11T06:40:39.158Z,2632
2019-04-11T06:41:38.832Z,2664
2019-04-11T06:59:22.148Z,3052
2019-04-11T07:00:21.012Z,3036
2019-04-11T07:01:20.280Z,3068
2019-04-11T07:02:21.315Z,3084
2019-04-11T07:03:22.214Z,3088
2019-04-11T07:04:15.627Z,3080
2019-04-11T07:05:14.061Z,3096
2019-04-11T07:06:13.337Z,3088
2019-04-11T07:07:11.182Z,3092
2019-04-11T07:08:09.770Z,3080
2019-04-11T07:09:09.483Z,3072
2019-04-11T07:10:06.955Z,3056
2019-04-11T07:11:05.959Z,3060
2019-04-11T07:12:05.556Z,3036
2019-04-11T07:13:03.447Z,3036
2019-04-11T07:14:01.960Z,3024
2019-04-11T07:15:00.345Z,3060
2019-04-11T07:15:58.881Z,3040
2019-04-11T07:17:03.889Z,3044
2019-04-11T07:17:56.706Z,3076
2019-04-11T07:18:54.821Z,3032
2019-04-11T07:19:53.650Z,2996
2019-04-11T07:20:52.300Z,3000
2019-04-11T07:21:50.385Z,2968
2019-04-11T07:22:49.225Z,3000
2019-04-11T07:23:49.095Z,3004
2019-04-11T07:24:47.453Z,2976
2019-04-11T07:25:45.195Z,2980
2019-04-11T07:26:43.881Z,2964
2019-04-11T07:27:42.939Z,2956
2019-04-11T07:28:41.615Z,2948
2019-04-11T07:29:40.089Z,2948
2019-04-11T07:30:38.112Z,2924
2019-04-11T07:31:37.998Z,2912
2019-04-11T07:32:36.397Z,2896
2019-04-11T07:33:35.323Z,2892
2019-04-11T07:34:33.899Z,2892
2019-04-11T07:35:31.297Z,2864
2019-04-11T07:36:29.747Z,2868
2019-04-11T07:37:28.248Z,2848
2019-04-11T07:38:27.248Z,2856
2019-04-11T07:39:25.583Z,2832
2019-04-11T07:40:24.238Z,2828
2019-04-11T07:41:23.803Z,2800
2019-04-11T07:42:21.254Z,2800
2019-04-11T07:43:19.606Z,2788
2019-04-11T07:44:18.092Z,2752
2019-04-11T07:45:17.329Z,2740
2019-04-11T07:46:15.415Z,2712
2019-04-11T07:47:19.070Z,2696
2019-04-11T07:50:54.995Z,2612
2019-04-11T07:53:15.781Z,2492
2019-04-11T07:54:15.701Z,2440
2019-04-11T07:55:13.184Z,2408
2019-04-11T07:56:12.024Z,2408
2019-04-11T07:57:10.477Z,2388
2019-04-11T07:58:08.866Z,2396
2019-04-11T07:59:07.442Z,2388
2019-04-11T08:00:06.117Z,2368
2019-04-11T08:01:04.832Z,2360
2019-04-11T08:02:03.680Z,2340
2019-04-11T08:03:02.065Z,2324
2019-04-11T08:04:01.557Z,2312
2019-04-11T08:04:59.008Z,2296
2019-04-11T08:05:58.731Z,2280
2019-04-11T08:06:56.365Z,2264
2019-04-11T08:07:55.136Z,2248
2019-04-11T08:08:53.709Z,2232
2019-04-11T08:09:52.781Z,2212
2019-04-11T08:10:50.839Z,2220
2019-04-11T08:15:31.464Z,2156
2019-04-11T08:17:56.473Z,2148
2019-04-11T08:18:55.219Z,2136
2019-04-11T08:19:53.756Z,2160
2019-04-11T08:20:53.265Z,2124
2019-04-11T08:21:50.917Z,2116
2019-04-11T08:24:32.240Z,2104
2019-04-11T08:25:29.925Z,2100
2019-04-11T08:26:28.463Z,2096
2019-04-11T08:29:24.384Z,2084
2019-04-11T08:30:22.789Z,2064
2019-04-11T08:31:21.576Z,2072
2019-04-11T08:32:19.986Z,2068
2019-04-11T08:33:18.488Z,2072
2019-04-11T08:34:17.267Z,2064
2019-04-11T08:35:15.875Z,2060
2019-04-11T08:36:15.693Z,2056
2019-04-11T08:37:13.609Z,2052
2019-04-11T08:38:12.073Z,2036
2019-04-11T08:39:11.059Z,2044
2019-04-11T08:40:09.378Z,2036
2019-04-11T08:41:07.492Z,2028
2019-04-11T08:42:07.245Z,2036
2019-04-11T08:43:04.732Z,2024
2019-04-11T08:44:03.615Z,2020
2019-04-11T08:45:01.750Z,2020
2019-04-11T08:46:00.408Z,2012
2019-04-11T08:47:00.887Z,2016
2019-04-11T08:47:58.825Z,2008
2019-04-11T08:48:57.264Z,2008
2019-04-11T08:49:55.742Z,2008
2019-04-11T08:50:54.577Z,2004
2019-04-11T08:53:34.981Z,1980
2019-04-11T08:54:33.337Z,1988
2019-04-11T08:55:43.374Z,1984
2019-04-11T08:56:29.790Z,1976
2019-04-11T08:57:28.338Z,1968
2019-04-11T08:58:26.888Z,1936
2019-04-11T08:59:25.575Z,1968
2019-04-11T09:00:24.282Z,1948
2019-04-11T09:01:22.686Z,1940
2019-04-11T09:02:21.243Z,1940
2019-04-11T09:03:19.784Z,1940
2019-04-11T09:04:18.496Z,1936
2019-04-11T09:05:19.573Z,1932
2019-04-11T09:06:16.609Z,1932
2019-04-11T09:07:14.044Z,1924
2019-04-11T09:09:37.978Z,1908
2019-04-11T09:10:35.877Z,1900
2019-04-11T09:11:36.580Z,1892
2019-04-11T09:12:32.592Z,1876
2019-04-11T09:13:31.346Z,1864
2019-04-11T09:14:30.446Z,1860
2019-04-11T09:15:28.707Z,1840
2019-04-11T09:16:27.748Z,1816
2019-04-11T09:17:26.141Z,1796
2019-04-11T09:18:24.332Z,1788
2019-04-11T09:19:23.059Z,1768
2019-04-11T09:20:21.576Z,1760
2019-04-11T09:21:20.355Z,1764
2019-04-11T09:22:18.956Z,1736
2019-04-11T09:23:17.678Z,1732
2019-04-11T09:24:16.718Z,1716
2019-04-11T09:25:14.801Z,1712
2019-04-11T09:26:13.924Z,1708
2019-04-11T09:27:12.176Z,1692
2019-04-11T09:28:11.347Z,1688
2019-04-11T09:29:10.154Z,1696
2019-04-11T09:30:10.396Z,1700
2019-04-11T09:31:08.978Z,1688
2019-04-11T09:32:05.118Z,1680
2019-04-11T09:33:04.695Z,1672
2019-04-11T09:34:03.627Z,1676
2019-04-11T09:35:01.838Z,1668
2019-04-11T09:35:59.794Z,1660
2019-04-11T09:36:58.311Z,1652
2019-04-11T09:37:57.882Z,1636
2019-04-11T09:38:56.907Z,1640
2019-04-11T09:39:55.162Z,1632
2019-04-11T09:40:52.727Z,1636
2019-04-11T09:41:52.347Z,1628
2019-04-11T09:42:49.856Z,1624
2019-04-11T09:43:48.484Z,1616
2019-04-11T09:44:47.074Z,1604
2019-04-11T09:45:45.978Z,1596
2019-04-11T09:46:44.558Z,1588
2019-04-11T09:47:43.158Z,1588
2019-04-11T09:48:42.218Z,1576
2019-04-11T09:49:40.328Z,1572
2019-04-11T09:50:38.900Z,1552
2019-04-11T09:51:38.001Z,1580
2019-04-11T09:52:36.744Z,1548
2019-04-11T09:53:34.558Z,1552
2019-04-11T09:54:33.853Z,1544
2019-04-11T09:55:31.618Z,1556
2019-04-11T09:56:31.221Z,1552
2019-04-11T09:57:28.962Z,1548
2019-04-11T09:58:27.537Z,1540
2019-04-11T09:59:27.154Z,1544
2019-04-11T10:00:24.606Z,1540
2019-04-11T10:01:24.515Z,1528
2019-04-11T10:02:21.794Z,1516
2019-04-11T10:03:20.424Z,1520
2019-04-11T10:04:18.967Z,1504
2019-04-11T10:05:18.073Z,1512
2019-04-11T10:06:16.179Z,1504
2019-04-11T10:07:14.759Z,1500
2019-04-11T10:08:13.295Z,1488
2019-04-11T10:09:11.812Z,1480
2019-04-11T10:10:10.775Z,1476
2019-04-11T10:11:10.091Z,1460
2019-04-11T10:12:07.571Z,1468
2019-04-11T10:13:06.776Z,1468
2019-04-11T10:14:05.143Z,1464
2019-04-11T10:15:05.005Z,1472
2019-04-11T10:16:02.410Z,1472
2019-04-11T10:17:01.126Z,1472
2019-04-11T10:18:00.943Z,1472
2019-04-11T10:18:58.444Z,1432
2019-04-11T10:19:56.991Z,1444
2019-04-11T10:20:55.619Z,1440
2019-04-11T10:21:54.392Z,1424
2019-04-11T10:22:54.323Z,1416
2019-04-11T10:23:51.476Z,1416
2019-04-11T10:24:50.515Z,1416
2019-04-11T10:25:49.644Z,1416
2019-04-11T10:26:47.868Z,1428
2019-04-11T10:27:46.894Z,1428
2019-04-11T10:28:44.214Z,1440
2019-04-11T10:29:43.969Z,1436
2019-04-11T10:30:41.952Z,1428
2019-04-11T10:31:40.072Z,1420
2019-04-11T10:32:39.274Z,1420
2019-04-11T10:33:37.312Z,1420
2019-04-11T10:34:36.072Z,1424
2019-04-11T10:35:34.630Z,1440
2019-04-11T10:36:33.184Z,1428
2019-04-11T10:37:31.760Z,1424
2019-04-11T10:38:30.711Z,1428
2019-04-11T10:39:29.123Z,1424
2019-04-11T10:40:28.118Z,1412
2019-04-11T10:41:26.333Z,1428
2019-04-11T10:42:24.882Z,1440
2019-04-11T10:43:24.547Z,1440
2019-04-11T10:44:23.311Z,1440
2019-04-11T10:45:20.725Z,1444
2019-04-11T10:46:19.618Z,1448
2019-04-11T10:47:17.857Z,1444
2019-04-11T10:48:16.402Z,1448
2019-04-11T10:49:14.978Z,1452
2019-04-11T10:50:13.507Z,1452
2019-04-11T10:51:12.943Z,1448
2019-04-11T10:52:10.622Z,1456
2019-04-11T10:53:09.205Z,1456
2019-04-11T10:54:08.496Z,1448
2019-04-11T10:55:06.515Z,1452
2019-04-11T10:56:06.273Z,1448
2019-04-11T10:57:04.019Z,1436
2019-04-11T10:58:02.757Z,1436
2019-04-11T10:59:01.627Z,1440
2019-04-11T10:59:59.745Z,1440
2019-04-11T11:00:58.326Z,1432
2019-04-11T11:01:58.056Z,1424
2019-04-11T11:02:55.781Z,1428
2019-04-11T11:03:54.096Z,1428
2019-04-11T11:04:52.701Z,1428
2019-04-11T11:05:51.430Z,1432
2019-04-11T11:06:50.129Z,1420
2019-04-11T11:07:48.878Z,1436
2019-04-11T11:08:47.883Z,1420
2019-04-11T11:09:46.271Z,1424
2019-04-11T11:10:44.395Z,1424
2019-04-11T11:11:44.154Z,1424
2019-04-11T11:12:41.897Z,1424
2019-04-11T11:13:40.778Z,1412
2019-04-11T11:14:39.079Z,1420
2019-04-11T11:15:37.908Z,1420
2019-04-11T11:16:39.209Z,1424
2019-04-11T11:17:52.557Z,1424
2019-04-11T11:18:53.535Z,1428
2019-04-11T11:19:45.399Z,1428
2019-04-11T11:20:36.190Z,1420
2019-04-11T11:21:32.076Z,1420
2019-04-11T11:22:27.967Z,1416
2019-04-11T11:23:26.851Z,1412
2019-04-11T11:24:26.015Z,1412
2019-04-11T11:25:24.643Z,1412
2019-04-11T11:26:23.251Z,1404
2019-04-11T11:27:22.242Z,1408
2019-04-11T11:28:19.567Z,1404
2019-04-11T11:29:18.824Z,1416
2019-04-11T11:30:16.739Z,1404
2019-04-11T11:31:15.967Z,1416
2019-04-11T11:32:14.415Z,1404
2019-04-11T11:33:13.906Z,1400
2019-04-11T11:34:16.044Z,1404
2019-04-11T11:35:10.756Z,1384
2019-04-11T11:36:10.701Z,1356
2019-04-11T11:37:07.313Z,1368
2019-04-11T11:38:06.048Z,1400
2019-04-11T11:39:04.632Z,1400
2019-04-11T11:40:06.707Z,1404
2019-04-11T11:41:01.697Z,1404
2019-04-11T11:42:00.281Z,1408
2019-04-11T11:42:58.872Z,1412
2019-04-11T11:43:57.719Z,1408
2019-04-11T11:44:57.250Z,1428
2019-04-11T11:45:56.625Z,1432
2019-04-11T11:46:54.146Z,1432
2019-04-11T11:47:53.193Z,1436
2019-04-11T11:48:53.800Z,1440
2019-04-11T11:49:56.836Z,1444
2019-04-11T11:50:50.458Z,1444
2019-04-11T11:51:47.747Z,1448
2019-04-11T11:52:45.561Z,1440
2019-04-11T11:53:44.065Z,1444
2019-04-11T11:54:43.870Z,1436
2019-04-11T11:55:41.285Z,1444
2019-04-11T11:56:40.284Z,1444
2019-04-11T11:57:39.192Z,1440
2019-04-11T11:58:37.522Z,1436
2019-04-11T11:59:36.446Z,1428
2019-04-11T12:00:34.711Z,1424
2019-04-11T12:01:33.280Z,1420
2019-04-11T12:02:32.701Z,1424
2019-04-11T12:03:31.172Z,1424
2019-04-11T12:04:32.872Z,1432
2019-04-11T12:05:29.386Z,1436
2019-04-11T12:06:27.116Z,1444
2019-04-11T12:07:25.244Z,1440
2019-04-11T12:08:24.505Z,1444
2019-04-11T12:09:22.512Z,1452
2019-04-11T12:10:22.457Z,1452
2019-04-11T12:11:19.893Z,1452
2019-04-11T12:12:19.722Z,1452
2019-04-11T12:13:17.206Z,1448
2019-04-11T12:14:15.899Z,1452
2019-04-11T12:15:17.624Z,1444
2019-04-11T12:16:15.720Z,1428
2019-04-11T12:17:11.439Z,1448
2019-04-11T12:18:11.014Z,1440
2019-04-11T12:19:08.871Z,1436
2019-04-11T12:20:11.545Z,1428
2019-04-11T12:21:06.225Z,1432
2019-04-11T12:22:04.766Z,1412
2019-04-11T12:23:04.570Z,1428
2019-04-11T12:24:05.956Z,1428
2019-04-11T12:25:00.655Z,1428
2019-04-11T12:25:59.135Z,1432
2019-04-11T12:26:57.658Z,1432
2019-04-11T12:27:56.406Z,1432
2019-04-11T12:28:54.903Z,1432
2019-04-11T12:29:53.654Z,1428
2019-04-11T12:30:52.991Z,1436
2019-04-11T12:31:52.212Z,1436
2019-04-11T12:32:49.704Z,1440
2019-04-11T12:33:48.152Z,1440
2019-04-11T12:34:47.177Z,1444
2019-04-11T12:35:46.428Z,1444
2019-04-11T12:36:47.902Z,1444
2019-04-11T12:37:43.345Z,1440
2019-04-11T12:38:41.281Z,1440
2019-04-11T12:39:40.130Z,1436
2019-04-11T12:40:38.723Z,1440
2019-04-11T12:41:37.251Z,1440
2019-04-11T12:42:35.806Z,1460
2019-04-11T12:43:34.343Z,1444
2019-04-11T12:44:32.932Z,1440
2019-04-11T12:45:31.571Z,1440
2019-04-11T12:46:30.303Z,1436
2019-04-11T12:47:28.834Z,1444
2019-04-11T12:48:27.410Z,1448
2019-04-11T12:49:25.981Z,1444
2019-04-11T12:50:24.541Z,1440
2019-04-11T12:51:23.066Z,1440
2019-04-11T12:52:21.861Z,1448
2019-04-11T12:53:20.429Z,1444
2019-04-11T12:54:18.970Z,1440
2019-04-11T12:55:17.618Z,1424
2019-04-11T12:56:16.149Z,1420
2019-04-11T12:57:14.742Z,1428
2019-04-11T12:58:13.371Z,1448
2019-04-11T12:59:12.062Z,1460
2019-04-11T13:00:10.615Z,1448
2019-04-11T13:01:09.216Z,1464
2019-04-11T13:02:07.876Z,1452
2019-04-11T13:03:06.432Z,1444
2019-04-11T13:04:04.995Z,1444
2019-04-11T13:05:03.582Z,1440
2019-04-11T13:06:02.110Z,1444
2019-04-11T13:07:00.665Z,1440
2019-04-11T13:07:59.212Z,1440
2019-04-11T13:08:57.819Z,1432
2019-04-11T13:09:56.379Z,1432
2019-04-11T13:10:54.949Z,1440
2019-04-11T13:11:53.785Z,1428
2019-04-11T13:12:52.414Z,1420
2019-04-11T13:13:51.013Z,1412
2019-04-11T13:14:49.761Z,1436
2019-04-11T13:15:48.307Z,1424
2019-04-11T13:16:47.000Z,1436
2019-04-11T13:17:46.021Z,1440
2019-04-11T13:18:44.561Z,1440
2019-04-11T13:19:43.126Z,1448
2019-04-11T13:20:41.831Z,1452
2019-04-11T13:21:40.508Z,1452
2019-04-11T13:22:39.094Z,1448
2019-04-11T13:23:40.396Z,1444
2019-04-11T13:24:36.618Z,1436
2019-04-11T13:25:35.422Z,1436
2019-04-11T13:28:16.022Z,1440
2019-04-11T13:29:14.584Z,1424
2019-04-11T13:30:13.261Z,1436
2019-04-11T13:31:12.314Z,1440
2019-04-11T13:32:10.730Z,1436
2019-04-11T13:33:09.459Z,1428
2019-04-11T13:34:08.108Z,1432
2019-04-11T13:35:06.697Z,1436
2019-04-11T13:56:34.333Z,1404
2019-04-11T13:57:32.991Z,1412
2019-04-11T13:58:31.602Z,1416
2019-04-11T13:59:30.159Z,1416
2019-04-11T14:00:28.768Z,1420
2019-04-11T14:01:27.338Z,1412
2019-04-11T14:02:26.057Z,1412
2019-04-11T14:03:24.670Z,1408
2019-04-11T14:04:23.444Z,1408
2019-04-11T14:05:22.137Z,1416
2019-04-11T14:06:20.761Z,1416
2019-04-11T14:07:21.211Z,1420
2019-04-11T14:08:18.199Z,1416
2019-04-11T14:09:16.799Z,1412
2019-04-11T14:10:15.487Z,1408
2019-04-11T14:11:14.154Z,1408
2019-04-11T14:12:12.738Z,1408
2019-04-11T14:13:11.501Z,1396
2019-04-11T14:14:10.200Z,1388
2019-04-11T14:15:08.799Z,1392
2019-04-11T14:16:07.571Z,1388
2019-04-11T14:17:06.484Z,1396
2019-04-11T14:18:05.165Z,1392
2019-04-11T14:19:03.915Z,1384
2019-04-11T14:20:02.498Z,1372
2019-04-11T14:21:01.044Z,1380
2019-04-11T14:21:59.686Z,1380
2019-04-11T14:22:58.236Z,1368
2019-04-11T14:23:56.925Z,1372
2019-04-11T14:24:55.708Z,1376
2019-04-11T14:25:54.314Z,1376
2019-04-11T14:26:52.904Z,1372
2019-04-11T14:27:51.675Z,1384
2019-04-11T14:28:50.297Z,1380
2019-04-11T14:29:48.955Z,1380
2019-04-11T14:30:51.503Z,1376
2019-04-11T14:31:46.566Z,1364
2019-04-11T14:32:45.474Z,1360
2019-04-11T14:33:44.189Z,1364
2019-04-11T14:34:42.725Z,1360
2019-04-11T14:35:41.266Z,1356
2019-04-11T14:36:40.109Z,1360
2019-04-11T14:37:38.921Z,1352
2019-04-11T14:38:45.831Z,1352
2019-04-11T14:39:35.893Z,1352
2019-04-11T14:40:34.487Z,1356
2019-04-11T14:41:33.121Z,1356
2019-04-11T14:42:31.801Z,1348
2019-04-11T14:43:30.477Z,1356
2019-04-11T14:44:29.072Z,1344
2019-04-11T14:45:27.770Z,1348
2019-04-11T14:46:26.429Z,1344
2019-04-11T14:47:25.115Z,1340
2019-04-11T14:48:23.648Z,1340
2019-04-11T14:49:22.196Z,1340
2019-04-11T14:50:20.745Z,1332
2019-04-11T14:51:19.304Z,1336
2019-04-11T14:52:18.194Z,1336
2019-04-11T14:53:17.351Z,1340